Time;durP1;ratioP1;P1;durP2;ratioP2;P2;SDS_P1;SDS_P2;PMS_P1;PMS_P2;Temp;Humidity;BMP_temperature;BMP_pressure;BME280_temperature;BME280_humidity;BME280_pressure;Samples;Min_cycle;Max_cycle;Signal;HPM_P1;HPM_P2
2022/10/08 00:02:26;;;;;;;26.95;18.92;;;;;;;14.47;100.00;99871.16;5093758;28;20077;-77
2022/10/08 00:04:51;;;;;;;23.60;17.48;;;;;;;14.49;100.00;99873.72;5093938;28;20034;-77
2022/10/08 00:07:16;;;;;;;22.08;15.98;;;;;;;14.47;100.00;99872.94;5093498;28;20323;-77
2022/10/08 00:09:42;;;;;;;19.25;14.95;;;;;;;14.44;100.00;99857.38;5093601;28;20062;-77
2022/10/08 00:12:07;;;;;;;19.50;15.60;;;;;;;14.50;100.00;99866.72;5093381;28;20023;-77
2022/10/08 00:14:32;;;;;;;24.20;16.65;;;;;;;14.47;100.00;99860.66;5093381;28;20020;-77
2022/10/08 00:16:58;;;;;;;20.98;15.20;;;;;;;14.48;100.00;99864.13;5093611;28;20577;-77
2022/10/08 00:19:23;;;;;;;24.08;15.48;;;;;;;14.44;100.00;99852.13;5093545;28;20066;-77
2022/10/08 00:21:52;;;;;;;22.83;16.63;;;;;;;14.49;100.00;99855.34;5093539;28;20020;-77
2022/10/08 00:24:18;;;;;;;22.90;16.98;;;;;;;14.49;100.00;99860.59;5092777;28;20034;-77
2022/10/08 00:26:44;;;;;;;20.10;17.05;;;;;;;14.42;100.00;99849.63;5093351;28;20058;-77
2022/10/08 00:29:12;;;;;;;22.83;16.50;;;;;;;14.40;100.00;99846.22;5093292;28;20028;-77
2022/10/08 00:31:39;;;;;;;23.02;17.20;;;;;;;14.32;100.00;99834.53;5093408;28;20024;-77
2022/10/08 00:34:08;;;;;;;20.27;16.50;;;;;;;14.36;100.00;99846.50;5093011;28;20024;-77
2022/10/08 00:36:36;;;;;;;22.60;17.77;;;;;;;14.34;100.00;99846.59;5093219;28;20031;-77
2022/10/08 00:39:04;;;;;;;22.23;17.58;;;;;;;14.33;100.00;99838.84;5092960;28;20074;-77
2022/10/08 00:41:32;;;;;;;21.35;17.77;;;;;;;14.28;100.00;99836.47;5093029;28;20024;-77
2022/10/08 00:44:03;;;;;;;24.83;19.63;;;;;;;14.30;100.00;99845.09;5093293;28;20016;-77
2022/10/08 00:46:38;;;;;;;22.08;16.45;;;;;;;14.20;100.00;99820.41;5092822;28;20412;-77
2022/10/08 00:49:11;;;;;;;18.38;13.40;;;;;;;14.15;100.00;99814.56;5092769;28;20051;-77
2022/10/08 00:51:41;;;;;;;16.58;13.48;;;;;;;14.17;100.00;99824.03;5092959;28;20049;-77
2022/10/08 00:54:07;;;;;;;16.50;13.18;;;;;;;14.18;100.00;99823.09;5092485;28;20023;-77
2022/10/08 00:56:37;;;;;;;16.23;13.00;;;;;;;14.17;100.00;99825.81;5092746;28;20474;-77
2022/10/08 00:59:03;;;;;;;15.05;12.85;;;;;;;14.10;100.00;99814.84;5092749;28;20020;-77
2022/10/08 01:01:29;;;;;;;14.45;12.90;;;;;;;14.14;100.00;99810.25;5093090;28;20059;-77
2022/10/08 01:04:05;;;;;;;14.02;12.18;;;;;;;14.12;100.00;99812.97;5092678;28;20061;-77
2022/10/08 01:06:54;;;;;;;15.75;12.95;;;;;;;14.09;100.00;99815.78;5092478;28;20051;-77
2022/10/08 01:09:32;;;;;;;15.55;12.73;;;;;;;14.04;100.00;99806.50;5092542;28;20051;-77
2022/10/08 01:11:57;;;;;;;19.90;15.90;;;;;;;14.07;100.00;99807.13;5092687;28;20028;-77
2022/10/08 01:14:46;;;;;;;17.73;14.20;;;;;;;14.00;100.00;99795.38;5092264;28;20553;-77
2022/10/08 01:17:32;;;;;;;18.30;14.98;;;;;;;14.06;100.00;99812.47;5092469;28;20024;-77
2022/10/08 01:20:16;;;;;;;17.85;14.90;;;;;;;13.98;100.00;99808.53;5092109;28;20086;-77
2022/10/08 01:23:12;;;;;;;17.45;14.52;;;;;;;13.94;100.00;99811.41;5092313;28;20042;-77
2022/10/08 01:25:46;;;;;;;16.80;13.60;;;;;;;13.91;100.00;99796.75;5092840;28;20031;-77
2022/10/08 01:28:42;;;;;;;16.38;13.80;;;;;;;13.89;100.00;99801.22;5092235;28;20032;-77
2022/10/08 01:31:17;;;;;;;17.33;14.95;;;;;;;13.83;100.00;99787.66;5091972;28;20012;-77
2022/10/08 01:33:57;;;;;;;19.00;14.50;;;;;;;13.82;100.00;99792.03;5091999;28;20032;-77
2022/10/08 01:36:26;;;;;;;17.80;15.75;;;;;;;13.77;100.00;99787.97;5091677;28;20426;-77
2022/10/08 01:38:57;;;;;;;17.80;15.90;;;;;;;13.70;100.00;99784.88;5092289;28;20091;-77
2022/10/08 01:41:25;;;;;;;17.40;15.63;;;;;;;13.63;100.00;99779.16;5091905;28;20051;-77
2022/10/08 01:44:00;;;;;;;18.83;15.82;;;;;;;13.57;100.00;99778.66;5092073;28;20073;-77
2022/10/08 01:46:28;;;;;;;18.02;14.68;;;;;;;13.50;100.00;99772.94;5092120;28;20070;-77
2022/10/08 01:49:01;;;;;;;16.42;14.45;;;;;;;13.53;100.00;99785.00;5092206;28;20047;-77
2022/10/08 01:51:31;;;;;;;15.50;13.80;;;;;;;13.50;100.00;99785.19;5091933;28;20039;-77
2022/10/08 01:53:59;;;;;;;;;;;;;;;13.49;100.00;99786.94;5092425;28;20028;-77
2022/10/08 01:56:28;;;;;;;22.05;16.90;;;;;;;13.44;100.00;99786.34;5091709;28;19988;-77
2022/10/08 01:59:01;;;;;;;29.25;19.50;;;;;;;13.38;100.00;99769.22;5092168;28;20055;-77
2022/10/08 02:01:57;;;;;;;28.63;21.42;;;;;;;13.40;100.00;99780.47;5091891;28;20031;-77
2022/10/08 02:04:33;;;;;;;28.60;21.02;;;;;;;13.37;100.00;99774.56;5091775;28;20367;-77
2022/10/08 02:07:14;;;;;;;20.17;16.63;;;;;;;13.38;100.00;99778.84;5092255;28;20126;-77
2022/10/08 02:09:42;;;;;;;18.52;15.45;;;;;;;13.28;100.00;99756.78;5091929;28;20073;-77
2022/10/08 02:12:08;;;;;;;18.02;14.95;;;;;;;13.25;100.00;99754.31;5091723;28;20028;-77
2022/10/08 02:14:37;;;;;;;16.20;14.50;;;;;;;13.25;100.00;99767.41;5091856;28;20405;-77
2022/10/08 02:17:24;;;;;;;17.17;14.95;;;;;;;13.21;100.00;99764.06;5091774;28;20117;-77
2022/10/08 02:20:12;;;;;;;16.52;14.77;;;;;;;13.15;100.00;99770.50;5092000;28;20027;-77
2022/10/08 02:22:46;;;;;;;18.27;15.02;;;;;;;13.11;100.00;99765.53;5009604;28;20117;-77
2022/10/08 02:25:21;;;;;;;16.33;14.65;;;;;;;13.07;100.00;99766.63;5009279;28;20085;-77
2022/10/08 02:27:55;;;;;;;17.95;15.50;;;;;;;12.96;100.00;99756.72;5009364;28;20029;-77
2022/10/08 02:30:22;;;;;;;17.48;15.57;;;;;;;13.01;100.00;99761.69;5009486;28;20040;-77
2022/10/08 02:32:57;;;;;;;19.20;15.60;;;;;;;12.92;100.00;99752.59;5009408;28;20033;-77
2022/10/08 02:35:30;;;;;;;15.73;14.13;;;;;;;12.99;100.00;99765.25;5009110;28;20024;-77
2022/10/08 02:38:05;;;;;;;17.63;15.63;;;;;;;12.96;100.00;99770.63;5009357;28;20037;-77
2022/10/08 02:40:33;;;;;;;15.98;14.25;;;;;;;12.91;100.00;99762.22;5009061;28;20038;-78
2022/10/08 02:43:07;;;;;;;16.58;14.68;;;;;;;12.83;100.00;99746.09;5009325;28;20069;-77
2022/10/08 02:45:42;;;;;;;18.20;14.15;;;;;;;12.88;100.00;99764.16;5009365;28;20057;-77
2022/10/08 02:48:17;;;;;;;17.65;14.45;;;;;;;12.81;100.00;99762.78;5012971;28;20108;-78
2022/10/08 02:50:45;;;;;;;16.38;14.35;;;;;;;12.75;100.00;99750.91;5012878;28;20033;-77
2022/10/08 02:53:14;;;;;;;16.20;14.55;;;;;;;12.79;100.00;99762.88;5012591;28;20041;-77
2022/10/08 02:55:54;;;;;;;17.27;14.82;;;;;;;12.78;100.00;99762.97;5012715;28;20018;-77
2022/10/08 02:58:20;;;;;;;17.33;14.85;;;;;;;12.73;100.00;99758.00;5012476;28;20040;-78
2022/10/08 03:00:53;;;;;;;15.43;13.82;;;;;;;12.69;100.00;99749.47;5092726;28;20028;-78
2022/10/08 03:03:31;;;;;;;17.48;14.93;;;;;;;12.77;100.00;99761.25;5094722;28;20031;-77
2022/10/08 03:06:01;;;;;;;18.30;16.35;;;;;;;12.71;100.00;99760.66;5094863;28;20052;-77
2022/10/08 03:08:28;;;;;;;22.50;16.23;;;;;;;12.78;100.00;99766.41;5094742;28;20089;-77
2022/10/08 03:10:54;;;;;;;19.98;16.58;;;;;;;12.76;100.00;99754.34;5094771;28;20028;-77
2022/10/08 03:13:20;;;;;;;19.67;16.33;;;;;;;12.81;100.00;99754.94;5094621;28;20020;-78
2022/10/08 03:15:51;;;;;;;16.70;14.98;;;;;;;12.87;100.00;99759.84;5094723;28;20027;-77
2022/10/08 03:18:18;;;;;;;18.70;16.70;;;;;;;12.81;100.00;99749.72;5094724;28;20095;-78
2022/10/08 03:20:47;;;;;;;17.95;15.60;;;;;;;12.86;100.00;99766.84;5094888;28;20024;-78
2022/10/08 03:23:15;;;;;;;19.15;15.57;;;;;;;12.80;100.00;99753.25;5094408;28;20035;-77
2022/10/08 03:25:40;;;;;;;20.77;16.05;;;;;;;12.73;100.00;99752.75;5094651;28;20110;-77
2022/10/08 03:28:06;;;;;;;19.73;16.92;;;;;;;12.70;100.00;99750.31;5094465;28;20055;-77
2022/10/08 03:30:31;;;;;;;22.45;18.65;;;;;;;12.76;100.00;99770.03;5094501;28;20028;-78
2022/10/08 03:32:56;;;;;;;18.77;16.45;;;;;;;12.71;100.00;99760.66;5094548;28;20026;-77
2022/10/08 03:35:22;;;;;;;24.38;18.90;;;;;;;12.70;100.00;99760.75;5094174;28;20482;-78
2022/10/08 03:37:47;;;;;;;22.63;18.50;;;;;;;12.65;100.00;99763.63;5094407;28;20052;-77
2022/10/08 03:40:13;;;;;;;24.23;18.15;;;;;;;12.59;100.00;99758.69;5094041;28;20035;-78
2022/10/08 03:42:38;;;;;;;23.75;18.65;;;;;;;12.57;100.00;99752.72;5092861;28;20015;-77
2022/10/08 03:45:04;;;;;;;23.10;18.60;;;;;;;12.55;100.00;99748.50;5094146;28;20063;-78
2022/10/08 03:47:29;;;;;;;27.50;17.92;;;;;;;12.50;100.00;99743.53;5094025;28;20364;-78
2022/10/08 03:49:55;;;;;;;24.42;18.20;;;;;;;12.45;100.00;99753.38;5094207;28;20027;-78
2022/10/08 03:52:20;;;;;;;22.00;17.90;;;;;;;12.39;100.00;99743.25;5093822;28;20389;-77
2022/10/08 03:54:45;;;;;;;22.02;18.45;;;;;;;12.36;100.00;99741.66;5093865;28;20017;-77
2022/10/08 03:57:11;;;;;;;25.00;19.58;;;;;;;12.36;100.00;99743.41;5093389;28;20038;-77
2022/10/08 03:59:36;;;;;;;28.20;19.83;;;;;;;12.25;100.00;99733.50;5093180;28;20428;-77
2022/10/08 04:02:01;;;;;;;39.88;25.00;;;;;;;12.19;100.00;99734.69;5094112;28;20043;-77
2022/10/08 04:04:27;;;;;;;52.33;31.42;;;;;;;12.21;100.00;99731.97;5093653;28;20024;-77
2022/10/08 04:06:52;;;;;;;44.17;28.00;;;;;;;12.17;100.00;99739.13;5093585;28;20048;-77
2022/10/08 04:09:17;;;;;;;49.25;31.13;;;;;;;12.04;100.00;99722.41;5093537;28;20459;-77
2022/10/08 04:11:43;;;;;;;50.65;32.53;;;;;;;12.05;100.00;99736.31;5093519;28;20081;-77
2022/10/08 04:14:08;;;;;;;52.15;33.58;;;;;;;11.96;100.00;99745.44;5093359;28;20024;-77
2022/10/08 04:16:33;;;;;;;47.58;31.63;;;;;;;11.96;100.00;99750.66;5093519;28;20023;-77
2022/10/08 04:18:59;;;;;;;60.13;36.72;;;;;;;11.95;100.00;99744.63;5093617;28;20505;-77
2022/10/08 04:21:24;;;;;;;52.95;34.53;;;;;;;11.86;100.00;99739.03;5093381;28;20020;-77
2022/10/08 04:23:49;;;;;;;51.85;33.97;;;;;;;11.84;100.00;99749.56;5093819;28;20053;-77
2022/10/08 04:26:15;;;;;;;48.50;33.88;;;;;;;11.74;100.00;99740.44;5093206;28;20451;-77
2022/10/08 04:28:43;;;;;;;49.72;33.13;;;;;;;11.69;100.00;99750.28;5093292;28;20063;-77
2022/10/08 04:31:15;;;;;;;46.97;34.05;;;;;;;11.65;100.00;99749.56;5093463;28;20515;-77
2022/10/08 04:33:41;;;;;;;41.78;30.30;;;;;;;11.61;100.00;99749.81;5093253;28;20020;-77
2022/10/08 04:36:09;;;;;;;37.63;28.55;;;;;;;11.66;100.00;99751.25;5093263;28;20031;-77
2022/10/08 04:38:34;;;;;;;23.45;20.20;;;;;;;11.72;100.00;99750.97;5093096;28;20061;-77
2022/10/08 04:41:12;;;;;;;27.25;21.02;;;;;;;11.83;100.00;99754.81;5093078;28;20024;-77
2022/10/08 04:43:39;;;;;;;28.50;21.17;;;;;;;11.85;100.00;99756.44;5093000;28;20114;-77
2022/10/08 04:46:07;;;;;;;26.05;20.40;;;;;;;11.87;100.00;99745.91;5093123;28;20049;-77
2022/10/08 04:48:32;;;;;;;23.08;19.58;;;;;;;11.94;100.00;99752.53;5092874;28;20407;-77
2022/10/08 04:51:01;;;;;;;22.98;20.48;;;;;;;11.93;100.00;99749.09;5093013;28;20074;-77
2022/10/08 04:53:27;;;;;;;26.75;21.52;;;;;;;11.91;100.00;99743.06;5092495;28;20463;-77
2022/10/08 04:55:54;;;;;;;26.67;20.55;;;;;;;11.93;100.00;99754.31;5092994;28;20103;-77
2022/10/08 04:58:21;;;;;;;26.85;21.02;;;;;;;11.89;100.00;99750.16;5092722;28;20016;-77
2022/10/08 05:00:46;;;;;;;23.70;19.52;;;;;;;11.79;100.00;99741.06;5092710;28;20451;-77
2022/10/08 05:03:11;;;;;;;30.80;20.67;;;;;;;11.77;100.00;99749.91;5092658;28;20065;-78
2022/10/08 05:05:41;;;;;;;24.42;20.40;;;;;;;11.69;100.00;99743.28;5092493;28;20040;-78
2022/10/08 05:08:07;;;;;;;27.13;20.23;;;;;;;11.65;100.00;99746.13;5092679;28;20458;-77
2022/10/08 05:10:32;;;;;;;24.25;20.35;;;;;;;11.61;100.00;99744.59;5092365;28;20032;-78
2022/10/08 05:12:57;;;;;;;25.95;20.65;;;;;;;11.65;100.00;99752.19;5092699;28;20024;-77
2022/10/08 05:15:23;;;;;;;23.42;18.83;;;;;;;11.65;100.00;99746.97;5092298;28;20451;-77
2022/10/08 05:17:48;;;;;;;27.05;20.15;;;;;;;11.62;100.00;99747.09;5092581;28;20020;-77
2022/10/08 05:20:13;;;;;;;26.25;20.98;;;;;;;11.59;100.00;99747.28;5092413;28;20111;-77
2022/10/08 05:22:39;;;;;;;22.77;19.83;;;;;;;11.59;100.00;99746.44;5092340;28;20107;-77
2022/10/08 05:25:04;;;;;;;28.45;21.25;;;;;;;11.55;100.00;99740.53;5092292;28;20028;-77
2022/10/08 05:27:30;;;;;;;24.17;20.58;;;;;;;11.59;100.00;99749.03;5092266;28;20016;-77
2022/10/08 05:29:55;;;;;;;29.75;20.88;;;;;;;11.61;100.00;99752.41;5092451;28;20063;-78
2022/10/08 05:32:21;;;;;;;21.88;19.40;;;;;;;11.61;100.00;99744.59;5092203;28;20426;-78
2022/10/08 05:34:46;;;;;;;26.98;19.38;;;;;;;11.62;100.00;99748.88;5092197;28;20336;-78
2022/10/08 05:37:11;;;;;;;26.83;20.48;;;;;;;11.60;100.00;99751.56;5092225;28;20013;-78
2022/10/08 05:39:37;;;;;;;26.00;19.90;;;;;;;11.58;100.00;99749.94;5091856;28;20095;-78
2022/10/08 05:42:02;;;;;;;25.10;20.55;;;;;;;11.58;100.00;99753.41;5092323;28;20054;-78
2022/10/08 05:44:27;;;;;;;23.25;20.17;;;;;;;11.66;100.00;99758.25;5091944;28;20349;-78
2022/10/08 05:46:53;;;;;;;24.00;19.77;;;;;;;11.71;100.00;99761.47;5092208;28;20034;-78
2022/10/08 05:49:21;;;;;;;25.33;20.10;;;;;;;11.75;100.00;99747.34;5092186;28;20023;-78
2022/10/08 05:51:47;;;;;;;25.33;20.63;;;;;;;11.90;100.00;99751.00;5092003;28;20058;-78
2022/10/08 05:54:13;;;;;;;23.20;20.73;;;;;;;12.17;100.00;99767.00;5091891;28;20360;-78
2022/10/08 05:56:38;;;;;;;26.52;20.77;;;;;;;12.35;100.00;99762.63;5091776;28;20030;-78
2022/10/08 05:59:04;;;;;;;23.27;20.85;;;;;;;12.47;100.00;99764.56;5091987;28;20059;-78
2022/10/08 06:01:31;;;;;;;24.70;20.73;;;;;;;12.57;100.00;99747.50;5091883;28;20503;-78
2022/10/08 06:04:02;;;;;;;22.98;19.73;;;;;;;12.81;100.00;99760.16;5091993;28;20096;-78
2022/10/08 06:06:27;;;;;;;24.73;20.75;;;;;;;12.96;100.00;99759.34;5091826;28;20348;-78
2022/10/08 06:08:58;;;;;;;22.25;19.98;;;;;;;13.10;100.00;99761.19;5092119;28;20016;-78
2022/10/08 06:11:24;;;;;;;22.58;18.85;;;;;;;13.34;100.00;99770.31;5091727;28;20024;-78
2022/10/08 06:13:54;;;;;;;19.45;17.40;;;;;;;13.52;100.00;99763.22;5091918;28;20020;-78
2022/10/08 06:16:20;;;;;;;21.92;18.10;;;;;;;13.70;100.00;99756.94;5091866;28;20032;-78
2022/10/08 06:18:45;;;;;;;18.95;17.05;;;;;;;13.77;100.00;99754.78;5091613;28;20099;-78
2022/10/08 06:21:14;;;;;;;18.92;16.70;;;;;;;13.83;100.00;99767.53;5092941;28;20099;-78
2022/10/08 06:23:45;;;;;;;18.77;16.98;;;;;;;14.03;100.00;99776.00;5095663;28;20023;-78
2022/10/08 06:26:11;;;;;;;18.48;16.63;;;;;;;14.15;100.00;99765.63;5095828;28;20034;-78
2022/10/08 06:28:38;;;;;;;19.30;17.27;;;;;;;14.21;100.00;99767.91;5095570;28;20016;-78
2022/10/08 06:31:05;;;;;;;18.27;16.48;;;;;;;14.32;100.00;99753.31;5095650;28;20031;-78
2022/10/08 06:33:31;;;;;;;18.88;16.90;;;;;;;14.43;100.00;99761.38;5095279;28;20024;-78
2022/10/08 06:36:22;;;;;;;22.90;20.40;;;;;;;14.60;100.00;99769.06;5095630;28;20031;-78
2022/10/08 06:38:51;;;;;;;20.45;17.38;;;;;;;15.15;100.00;99755.13;5095532;28;20024;-78
2022/10/08 06:41:17;;;;;;;20.45;18.27;;;;;;;15.45;100.00;99768.06;5095491;28;20084;-78
2022/10/08 06:43:43;;;;;;;17.58;15.98;;;;;;;15.55;100.00;99751.69;5095280;28;20031;-78
2022/10/08 06:46:09;;;;;;;17.95;16.08;;;;;;;15.56;100.00;99750.78;5095249;28;20028;-78
2022/10/08 06:48:34;;;;;;;17.73;15.85;;;;;;;15.48;100.00;99753.91;5095213;28;20403;-78
2022/10/08 06:51:02;;;;;;;20.65;16.48;;;;;;;15.52;100.00;99760.63;5095381;28;20474;-78
2022/10/08 06:53:27;;;;;;;18.00;16.20;;;;;;;15.45;100.00;99761.97;5095021;28;20016;-78
2022/10/08 06:55:58;;;;;;;20.13;17.00;;;;;;;15.23;100.00;99745.00;5095186;28;20103;-78
2022/10/08 06:58:23;;;;;;;19.98;17.85;;;;;;;15.02;100.00;99745.53;5095090;28;20467;-78
2022/10/08 07:00:49;;;;;;;18.23;16.33;;;;;;;14.86;100.00;99754.34;5094834;28;20027;-78
2022/10/08 07:03:14;;;;;;;17.63;15.95;;;;;;;14.77;100.00;99752.31;5095511;28;20024;-78
2022/10/08 07:05:39;;;;;;;19.55;17.45;;;;;;;14.68;100.00;99750.25;5094897;28;20085;-78
2022/10/08 07:08:05;;;;;;;18.67;16.08;;;;;;;14.65;100.00;99756.53;5095227;28;20099;-78
2022/10/08 07:10:32;;;;;;;19.50;16.63;;;;;;;14.72;100.00;99773.56;5094759;28;20055;-78
2022/10/08 07:12:57;;;;;;;19.80;17.80;;;;;;;14.80;100.00;99767.00;5094780;28;20020;-78
2022/10/08 07:15:22;;;;;;;20.95;18.85;;;;;;;14.83;100.00;99757.19;5094601;28;20078;-78
2022/10/08 07:17:48;;;;;;;21.98;19.63;;;;;;;14.86;100.00;99750.88;5094684;28;20020;-78
2022/10/08 07:20:13;;;;;;;27.27;23.75;;;;;;;14.98;100.00;99763.22;5094625;28;20065;-78
2022/10/08 07:22:38;;;;;;;21.42;19.13;;;;;;;15.05;100.00;99761.06;5094475;28;20047;-78
2022/10/08 07:25:04;;;;;;;19.10;17.17;;;;;;;15.32;100.00;99766.34;5094685;28;20035;-78
2022/10/08 07:27:29;;;;;;;20.30;17.95;;;;;;;15.67;100.00;99770.19;5094287;28;20020;-78
2022/10/08 07:29:55;;;;;;;21.27;19.02;;;;;;;15.94;100.00;99761.41;5094453;28;20508;-78
2022/10/08 07:32:20;;;;;;;22.60;18.02;;;;;;;15.97;100.00;99755.94;5093519;28;20070;-78
2022/10/08 07:34:45;;;;;;;18.55;16.65;;;;;;;15.90;100.00;99760.75;5094060;28;20448;-78
2022/10/08 07:37:10;;;;;;;21.52;17.30;;;;;;;15.81;100.00;99757.91;5094771;28;20034;-78
2022/10/08 07:39:36;;;;;;;20.30;17.25;;;;;;;15.76;100.00;99768.72;5093966;28;20362;-78
2022/10/08 07:42:01;;;;;;;18.63;16.73;;;;;;;15.67;100.00;99764.94;5094118;28;20531;-78
2022/10/08 07:44:26;;;;;;;18.45;16.60;;;;;;;15.60;100.00;99768.03;5094192;28;20501;-78
2022/10/08 07:46:52;;;;;;;19.10;16.63;;;;;;;15.43;100.00;99748.13;5094009;28;20359;-78
2022/10/08 07:49:19;;;;;;;20.55;18.45;;;;;;;15.42;100.00;99764.78;5093050;28;20027;-78
2022/10/08 07:51:45;;;;;;;20.85;18.85;;;;;;;15.32;100.00;99761.09;5093965;28;20024;-78
2022/10/08 07:54:13;;;;;;;19.92;17.75;;;;;;;15.22;100.00;99758.22;5094001;28;20031;-78
2022/10/08 07:56:39;;;;;;;19.90;17.60;;;;;;;15.20;100.00;99762.69;5093753;28;20024;-78
2022/10/08 07:59:06;;;;;;;23.75;19.20;;;;;;;15.04;100.00;99733.97;5084793;28;20095;-78
2022/10/08 08:01:33;;;;;;;24.88;22.38;;;;;;;15.09;100.00;99747.66;5073667;28;20017;-78
2022/10/08 08:04:04;;;;;;;27.63;23.17;;;;;;;15.17;100.00;99757.69;5072484;28;20372;-78
2022/10/08 08:06:31;;;;;;;22.17;19.85;;;;;;;15.24;100.00;99751.06;5094917;28;20048;-78
2022/10/08 08:08:59;;;;;;;20.15;18.13;;;;;;;15.29;100.00;99749.00;5085576;28;20028;-78
2022/10/08 08:11:25;;;;;;;20.83;18.45;;;;;;;15.29;100.00;99745.53;5087556;28;20032;-78
2022/10/08 08:13:51;;;;;;;22.05;19.73;;;;;;;15.40;100.00;99762.28;5093396;28;20153;-78
2022/10/08 08:16:24;;;;;;;21.52;19.20;;;;;;;15.40;100.00;99761.44;5095305;28;20020;-78
2022/10/08 08:18:51;;;;;;;24.23;21.63;;;;;;;15.42;100.00;99760.41;5094496;28;20487;-78
2022/10/08 08:21:26;;;;;;;22.98;20.35;;;;;;;15.52;100.00;99765.03;5093479;28;20020;-78
2022/10/08 08:23:55;;;;;;;25.70;22.60;;;;;;;15.62;100.00;99759.06;5093017;28;20116;-78
2022/10/08 08:26:23;;;;;;;24.17;21.63;;;;;;;15.79;100.00;99765.03;5093562;28;20375;-78
2022/10/08 08:28:53;;;;;;;23.65;21.25;;;;;;;15.90;100.00;99760.75;5093010;28;20034;-78
2022/10/08 08:31:22;;;;;;;27.55;23.15;;;;;;;16.06;100.00;99759.75;5093376;28;20051;-78
2022/10/08 08:33:50;;;;;;;23.63;21.15;;;;;;;16.17;100.00;99750.16;5092965;28;20466;-78
2022/10/08 08:36:17;;;;;;;22.95;20.65;;;;;;;16.41;100.00;99752.91;5093098;28;20031;-78
2022/10/08 08:38:43;;;;;;;21.98;19.88;;;;;;;16.56;100.00;99758.03;5092812;28;20024;-78
2022/10/08 08:41:21;;;;;;;21.63;19.33;;;;;;;16.78;100.00;99757.44;5093293;28;20063;-78
2022/10/08 08:43:47;;;;;;;22.02;19.67;;;;;;;16.99;100.00;99761.16;5091385;28;20352;-78
2022/10/08 08:46:17;;;;;;;22.25;19.77;;;;;;;17.07;100.00;99750.09;5093002;28;20035;-78
2022/10/08 08:48:44;;;;;;;24.45;21.17;;;;;;;17.33;99.54;99761.38;5093008;28;20020;-78
2022/10/08 08:51:10;;;;;;;24.63;21.23;;;;;;;17.57;98.18;99749.03;5092834;28;20024;-78
2022/10/08 08:53:36;;;;;;;22.35;20.00;;;;;;;17.80;97.34;99749.97;5092805;28;20107;-78
2022/10/08 08:56:04;;;;;;;25.08;19.08;;;;;;;18.04;96.54;99767.53;5092926;28;20107;-78
2022/10/08 08:58:39;;;;;;;21.45;18.67;;;;;;;18.15;95.52;99760.47;5092924;28;20073;-78
2022/10/08 09:01:13;;;;;;;21.63;18.17;;;;;;;18.18;94.83;99760.25;5092747;28;20027;-78
2022/10/08 09:03:50;;;;;;;19.98;17.98;;;;;;;18.13;94.68;99769.47;5092407;28;20054;-78
2022/10/08 09:06:18;;;;;;;21.30;18.98;;;;;;;18.18;94.32;99748.88;5092669;28;20085;-78
2022/10/08 09:09:06;;;;;;;20.85;18.65;;;;;;;18.44;93.38;99760.03;5092504;28;20431;-78
2022/10/08 09:11:32;;;;;;;20.08;17.33;;;;;;;18.54;92.79;99768.94;5092578;28;20028;-78
2022/10/08 09:14:06;;;;;;;19.60;16.92;;;;;;;18.62;92.49;99763.03;5092425;28;20012;-78
2022/10/08 09:16:34;;;;;;;18.38;16.58;;;;;;;18.65;92.43;99754.91;5092606;28;20020;-78
2022/10/08 09:18:59;;;;;;;20.63;17.42;;;;;;;18.64;92.13;99763.78;5092583;28;20047;-78
2022/10/08 09:21:29;;;;;;;22.85;16.38;;;;;;;18.51;91.73;99761.25;5092491;28;20452;-78
2022/10/08 09:23:54;;;;;;;24.65;17.63;;;;;;;18.45;91.71;99773.09;5092125;28;20028;-78
2022/10/08 09:26:22;;;;;;;22.10;17.25;;;;;;;18.30;92.09;99773.47;5092572;28;20074;-78
2022/10/08 09:28:51;;;;;;;20.38;17.00;;;;;;;18.26;92.30;99782.56;5091991;28;20024;-78
2022/10/08 09:31:39;;;;;;;17.90;16.00;;;;;;;18.26;92.77;99783.41;5092434;28;20028;-78
2022/10/08 09:34:17;;;;;;;19.40;16.92;;;;;;;18.29;92.93;99790.25;5009875;28;20069;-78
2022/10/08 09:36:49;;;;;;;18.40;16.50;;;;;;;18.25;92.96;99778.25;5009811;28;20041;-78
2022/10/08 09:39:20;;;;;;;25.92;17.70;;;;;;;18.15;92.98;99768.38;5010014;28;20045;-81
2022/10/08 09:42:03;;;;;;;22.63;17.48;;;;;;;18.25;92.72;99775.63;5009812;28;20026;-81
2022/10/08 09:44:37;;;;;;;21.48;17.48;;;;;;;18.32;92.29;99780.28;5009817;28;20038;-81
2022/10/08 09:47:05;;;;;;;22.80;17.52;;;;;;;18.37;92.17;99775.53;5009743;28;20022;-81
2022/10/08 09:49:33;;;;;;;20.23;17.02;;;;;;;18.51;91.33;99787.63;5009746;28;20034;-81
2022/10/08 09:52:25;;;;;;;21.05;16.95;;;;;;;18.64;91.14;99788.34;5009562;28;20050;-81
2022/10/08 09:55:09;;;;;;;17.60;15.75;;;;;;;18.72;90.55;99777.25;5009378;28;20037;-81
2022/10/08 09:57:48;;;;;;;16.77;15.07;;;;;;;18.93;90.53;99786.09;5013138;28;20117;-81
2022/10/08 10:00:34;;;;;;;19.10;15.75;;;;;;;19.08;90.43;99785.84;5013401;28;20030;-81
2022/10/08 10:03:01;;;;;;;19.02;15.88;;;;;;;19.14;89.93;99777.44;5013612;28;20025;-81
2022/10/08 10:05:32;;;;;;;19.23;14.63;;;;;;;19.13;89.62;99775.75;5013542;28;20048;-81
2022/10/08 10:07:58;;;;;;;18.65;14.18;;;;;;;19.06;88.87;99777.22;5013506;28;20037;-81
2022/10/08 10:10:32;;;;;;;14.88;13.38;;;;;;;19.00;88.73;99780.31;5026953;28;20036;-81
2022/10/08 10:13:20;;;;;;;15.90;12.70;;;;;;;18.93;88.54;99772.06;5075543;28;20099;-81
2022/10/08 10:15:52;;;;;;;13.55;11.05;;;;;;;18.95;87.57;99773.63;5075271;28;20364;-81
2022/10/08 10:18:21;;;;;;;15.88;11.18;;;;;;;18.86;87.37;99778.78;5074135;28;20073;-81
2022/10/08 10:20:58;;;;;;;12.60;11.23;;;;;;;18.73;87.75;99775.44;5075470;28;20056;-81
2022/10/08 10:23:30;;;;;;;16.42;12.40;;;;;;;18.60;88.35;99784.28;5075580;28;20013;-81
2022/10/08 10:26:10;;;;;;;12.35;11.05;;;;;;;18.48;88.67;99776.47;5075309;28;20020;-81
2022/10/08 10:28:43;;;;;;;16.88;13.13;;;;;;;18.31;88.85;99775.13;5075449;28;20021;-81
2022/10/08 10:31:24;;;;;;;14.45;12.48;;;;;;;18.25;89.17;99779.09;5075268;28;20033;-81
2022/10/08 10:33:51;;;;;;;;;;;;;;;18.18;89.86;99783.97;5075706;28;20027;-81
2022/10/08 10:36:19;;;;;;;17.92;12.18;;;;;;;18.08;90.19;99774.28;5076178;28;19908;-81
2022/10/08 10:38:52;;;;;;;15.93;11.82;;;;;;;18.03;90.91;99771.94;5074775;28;20056;-81
2022/10/08 10:41:17;;;;;;;13.98;11.25;;;;;;;18.01;91.21;99775.69;5075192;28;20051;-81
2022/10/08 10:43:53;;;;;;;13.18;11.77;;;;;;;17.92;91.76;99772.78;5075007;28;20032;-81
2022/10/08 10:46:40;;;;;;;17.05;12.60;;;;;;;17.80;92.02;99763.16;5075006;28;20030;-81
2022/10/08 10:49:16;;;;;;;22.90;12.93;;;;;;;17.74;91.97;99763.63;5075106;28;20044;-81
2022/10/08 10:52:14;;;;;;;13.40;11.23;;;;;;;17.67;91.58;99755.28;5074846;28;20452;-81
2022/10/08 10:55:07;;;;;;;15.70;12.93;;;;;;;17.72;92.33;99768.13;5074906;28;20059;-81
2022/10/08 10:57:57;;;;;;;17.40;12.38;;;;;;;17.72;92.51;99757.59;5075007;28;20541;-81
2022/10/08 11:00:27;;;;;;;16.60;11.90;;;;;;;17.71;92.67;99759.38;5074826;28;20029;-81
2022/10/08 11:02:55;;;;;;;13.47;11.37;;;;;;;17.71;92.94;99771.72;5074639;28;20050;-81
2022/10/08 11:05:31;;;;;;;12.98;11.57;;;;;;;17.59;93.75;99756.81;5073275;28;20296;-81
2022/10/08 11:08:25;;;;;;;16.83;12.45;;;;;;;17.64;93.72;99758.16;5074265;28;20027;-81
2022/10/08 11:11:15;;;;;;;18.75;12.73;;;;;;;17.56;93.73;99759.66;5074246;28;20363;-80
2022/10/08 11:13:52;;;;;;;13.20;11.80;;;;;;;17.52;93.88;99759.06;5074797;28;20023;-81
2022/10/08 11:17:01;;;;;;;16.70;12.00;;;;;;;17.44;94.32;99757.00;5074492;28;20025;-81
2022/10/08 11:19:58;;;;;;;15.30;12.45;;;;;;;17.38;95.12;99752.16;4992687;28;20030;-81
2022/10/08 11:22:36;;;;;;;15.07;12.05;;;;;;;17.30;95.49;99746.63;4934735;29;20527;-81
2022/10/08 11:25:25;;;;;;;21.20;13.48;;;;;;;17.20;95.50;99732.47;4939080;29;20554;-81
2022/10/08 11:27:58;;;;;;;15.32;12.63;;;;;;;17.30;96.10;99751.06;4953778;29;20031;-81